Time;durP1;ratioP1;P1;durP2;ratioP2;P2;SDS_P1;SDS_P2;PMS_P1;PMS_P2;Temp;Humidity;BMP_temperature;BMP_pressure;BME280_temperature;BME280_humidity;BME280_pressure;Samples;Min_cycle;Max_cycle;Signal;HPM_P1;HPM_P2
2023/08/06 00:06:43;;;;;;;2.47;1.80;;;19.30;80.60;;;;;;4979973;28;20114;-69
2023/08/06 00:09:11;;;;;;;2.70;1.65;;;19.30;80.50;;;;;;4979331;28;20165;-69
2023/08/06 00:11:41;;;;;;;2.00;1.73;;;19.30;80.50;;;;;;4978348;28;20369;-69
2023/08/06 00:14:09;;;;;;;3.42;2.10;;;19.30;80.40;;;;;;4979180;28;20061;-69
2023/08/06 00:16:35;;;;;;;2.75;2.10;;;19.30;80.50;;;;;;4979236;28;20027;-68
2023/08/06 00:19:01;;;;;;;4.88;2.30;;;19.30;80.50;;;;;;4979710;28;20033;-69
2023/08/06 00:21:27;;;;;;;3.28;2.47;;;19.30;80.40;;;;;;4979202;28;20022;-68
2023/08/06 00:23:52;;;;;;;2.97;2.42;;;19.20;80.50;;;;;;4978235;28;20357;-68
2023/08/06 00:26:21;;;;;;;2.90;2.22;;;19.20;80.40;;;;;;4979147;28;20034;-68
2023/08/06 00:28:49;;;;;;;4.20;2.25;;;19.20;80.50;;;;;;4978941;28;20054;-69
2023/08/06 00:31:16;;;;;;;3.42;2.20;;;19.20;80.50;;;;;;4979509;28;20039;-68
2023/08/06 00:33:44;;;;;;;5.63;2.50;;;19.20;80.50;;;;;;4979438;28;20463;-68
2023/08/06 00:36:12;;;;;;;2.85;2.55;;;19.10;80.60;;;;;;4978397;28;20031;-69
2023/08/06 00:38:38;;;;;;;5.95;2.67;;;19.10;80.60;;;;;;4978756;28;20023;-69
2023/08/06 00:41:04;;;;;;;9.15;4.75;;;19.20;80.50;;;;;;4978936;28;20466;-68
2023/08/06 00:43:30;;;;;;;13.02;6.93;;;19.10;80.50;;;;;;4979365;28;20492;-69
2023/08/06 00:45:56;;;;;;;14.93;7.00;;;19.10;80.50;;;;;;4978777;28;20043;-68
2023/08/06 00:48:22;;;;;;;15.95;7.28;;;19.10;80.60;;;;;;4978655;28;20089;-69
2023/08/06 00:50:49;;;;;;;15.55;7.47;;;19.10;80.60;;;;;;4978662;28;20150;-68
2023/08/06 00:53:15;;;;;;;14.18;8.45;;;19.10;80.60;;;;;;4978601;28;20027;-68
2023/08/06 00:55:44;;;;;;;15.35;7.90;;;19.10;80.60;;;;;;4978823;28;20027;-69
2023/08/06 00:58:14;;;;;;;16.77;7.97;;;19.10;80.60;;;;;;4978452;28;20034;-68
2023/08/06 01:00:42;;;;;;;14.85;8.43;;;19.10;80.60;;;;;;4978939;28;20050;-68
2023/08/06 01:03:08;;;;;;;14.52;7.80;;;19.10;80.60;;;;;;4978423;28;20027;-69
2023/08/06 01:05:37;;;;;;;14.55;7.80;;;19.10;80.60;;;;;;4978824;28;20315;-68
2023/08/06 01:08:18;;;;;;;15.52;8.00;;;19.20;80.60;;;;;;4978271;28;20038;-68
2023/08/06 01:11:02;;;;;;;13.43;6.85;;;19.20;80.60;;;;;;4978350;28;20073;-68
2023/08/06 01:13:49;;;;;;;9.82;5.35;;;19.20;80.60;;;;;;4978453;28;20133;-69
2023/08/06 01:16:20;;;;;;;7.90;4.50;;;19.20;80.60;;;;;;4978142;28;20042;-69
2023/08/06 01:18:58;;;;;;;7.20;4.38;;;19.20;80.60;;;;;;4978026;28;20453;-68
2023/08/06 01:21:26;;;;;;;9.43;3.90;;;19.20;80.60;;;;;;4978046;28;20035;-69
2023/08/06 01:23:55;;;;;;;5.07;3.15;;;19.20;80.60;;;;;;4977832;28;20042;-68
2023/08/06 01:26:45;;;;;;;4.80;2.90;;;19.20;80.60;;;;;;4977975;28;20030;-68
2023/08/06 01:29:43;;;;;;;6.20;3.00;;;19.20;80.60;;;;;;4978436;28;20047;-69
2023/08/06 01:32:14;;;;;;;4.53;2.70;;;19.20;80.60;;;;;;4978460;28;20039;-69
2023/08/06 01:34:45;;;;;;;5.38;2.78;;;19.20;80.50;;;;;;4977796;28;20027;-69
2023/08/06 01:37:13;;;;;;;5.28;2.60;;;19.30;80.50;;;;;;4977793;28;20030;-69
2023/08/06 01:39:43;;;;;;;3.92;2.45;;;19.30;80.50;;;;;;4977725;28;20027;-69
2023/08/06 01:42:11;;;;;;;3.67;2.25;;;19.30;80.50;;;;;;4977960;28;20115;-69
2023/08/06 01:44:53;;;;;;;2.90;2.05;;;19.20;80.50;;;;;;4977673;28;20106;-68
2023/08/06 01:47:20;;;;;;;2.60;2.40;;;19.20;80.50;;;;;;4978017;28;20043;-68
2023/08/06 01:49:47;;;;;;;3.30;2.10;;;19.30;80.60;;;;;;4977527;28;20062;-69
2023/08/06 01:52:15;;;;;;;3.53;2.60;;;19.20;80.50;;;;;;4977933;28;20035;-69
2023/08/06 01:54:44;;;;;;;4.53;2.88;;;19.30;80.60;;;;;;4977351;28;20037;-68
2023/08/06 01:57:11;;;;;;;9.27;2.85;;;19.20;80.50;;;;;;4977628;28;20066;-68
2023/08/06 01:59:39;;;;;;;5.05;2.40;;;19.20;80.50;;;;;;4977356;28;20026;-68
2023/08/06 02:02:07;;;;;;;3.08;2.70;;;19.20;80.60;;;;;;4977407;28;20027;-69
2023/08/06 02:04:35;;;;;;;3.70;2.78;;;19.10;80.60;;;;;;4977800;28;20074;-68
2023/08/06 02:07:03;;;;;;;3.95;2.67;;;19.20;80.70;;;;;;4977507;28;20030;-68
2023/08/06 02:09:29;;;;;;;3.10;2.65;;;19.20;80.70;;;;;;4977151;28;20054;-68
2023/08/06 02:11:57;;;;;;;4.82;2.80;;;19.20;80.80;;;;;;4977471;28;20133;-69
2023/08/06 02:14:23;;;;;;;6.07;3.17;;;19.20;80.80;;;;;;4977267;28;20039;-68
2023/08/06 02:16:50;;;;;;;5.22;3.20;;;19.10;80.80;;;;;;4977040;28;20118;-68
2023/08/06 02:19:16;;;;;;;6.18;3.47;;;19.10;80.70;;;;;;4977247;28;20036;-68
2023/08/06 02:21:55;;;;;;;7.03;2.90;;;19.10;80.70;;;;;;4977021;28;20031;-69
2023/08/06 02:24:23;;;;;;;5.50;2.78;;;19.10;80.70;;;;;;4977496;28;20034;-69
2023/08/06 02:26:51;;;;;;;6.45;2.90;;;19.00;80.80;;;;;;4977359;28;20058;-68
2023/08/06 02:29:19;;;;;;;3.20;2.70;;;19.10;80.90;;;;;;4976787;28;20034;-69
2023/08/06 02:31:46;;;;;;;5.40;3.03;;;19.10;80.90;;;;;;4977377;28;20109;-68
2023/08/06 02:34:14;;;;;;;3.28;2.60;;;19.10;81.00;;;;;;4977238;28;20023;-68
2023/08/06 02:36:54;;;;;;;3.53;2.60;;;19.10;81.10;;;;;;4977279;28;20035;-69
2023/08/06 02:39:33;;;;;;;5.53;2.63;;;19.10;81.10;;;;;;4976602;28;20396;-68
2023/08/06 02:42:02;;;;;;;5.30;2.70;;;19.10;81.10;;;;;;4977004;28;20035;-68
2023/08/06 02:44:31;;;;;;;4.63;2.72;;;19.10;81.20;;;;;;4976622;28;20027;-68
2023/08/06 02:46:57;;;;;;;4.45;2.83;;;19.10;81.20;;;;;;4976650;28;20035;-69
2023/08/06 02:49:23;;;;;;;8.23;3.08;;;19.10;81.20;;;;;;4975524;28;20037;-68
2023/08/06 02:51:48;;;;;;;3.15;2.65;;;19.20;81.20;;;;;;4975628;28;20027;-69
2023/08/06 02:54:14;;;;;;;5.30;3.05;;;19.20;81.20;;;;;;4991657;28;20045;-68
2023/08/06 02:56:44;;;;;;;3.40;2.80;;;19.20;81.20;;;;;;4976766;28;20034;-68
2023/08/06 02:59:11;;;;;;;3.83;2.83;;;19.20;81.20;;;;;;4975842;28;20514;-68
2023/08/06 03:01:37;;;;;;;4.00;2.80;;;19.10;81.20;;;;;;4959524;28;20076;-69
2023/08/06 03:04:04;;;;;;;3.83;2.40;;;19.20;81.10;;;;;;4976866;28;20114;-68
2023/08/06 03:06:30;;;;;;;3.33;2.35;;;19.20;81.10;;;;;;4976369;28;20051;-69
2023/08/06 03:08:56;;;;;;;4.60;2.30;;;19.10;80.90;;;;;;4976790;28;20062;-70
2023/08/06 03:11:22;;;;;;;7.50;2.70;;;19.20;80.90;;;;;;4976169;28;20158;-68
2023/08/06 03:13:48;;;;;;;3.88;2.50;;;19.20;80.70;;;;;;4976725;28;20187;-68
2023/08/06 03:16:14;;;;;;;6.55;2.20;;;19.20;80.50;;;;;;4976800;28;20066;-69
2023/08/06 03:18:41;;;;;;;4.18;2.35;;;19.20;80.40;;;;;;4976362;28;20451;-70
2023/08/06 03:21:07;;;;;;;5.60;1.80;;;19.10;80.30;;;;;;4975388;28;20027;-68
2023/08/06 03:23:33;;;;;;;1.98;1.58;;;19.10;80.20;;;;;;4976226;28;20041;-69
2023/08/06 03:26:04;;;;;;;2.03;1.35;;;19.10;80.10;;;;;;4976188;28;20353;-68
2023/08/06 03:28:30;;;;;;;1.63;1.45;;;19.10;80.00;;;;;;4976312;28;20046;-69
2023/08/06 03:31:00;;;;;;;2.95;1.45;;;19.10;80.00;;;;;;4976419;28;20031;-68
2023/08/06 03:33:27;;;;;;;3.67;1.50;;;19.10;80.00;;;;;;4976323;28;20057;-70
2023/08/06 03:35:52;;;;;;;3.13;1.40;;;19.10;79.90;;;;;;4976416;28;20019;-69
2023/08/06 03:38:19;;;;;;;4.53;1.50;;;19.00;79.90;;;;;;4976242;28;20031;-69
2023/08/06 03:40:46;;;;;;;2.78;1.42;;;19.00;79.90;;;;;;4976068;28;20027;-70
2023/08/06 03:43:12;;;;;;;2.83;1.40;;;19.00;79.90;;;;;;4976573;28;20042;-69
2023/08/06 03:45:39;;;;;;;3.22;1.30;;;18.90;80.10;;;;;;4976045;28;20031;-69
2023/08/06 03:48:05;;;;;;;2.67;1.33;;;18.90;80.10;;;;;;4976197;28;20030;-69
2023/08/06 03:50:31;;;;;;;1.10;1.10;;;18.90;80.20;;;;;;4976434;28;20038;-68
2023/08/06 03:52:57;;;;;;;2.20;1.58;;;18.90;80.20;;;;;;4975930;28;20031;-69
2023/08/06 03:55:24;;;;;;;1.13;1.10;;;18.90;80.20;;;;;;4976001;28;20030;-69
2023/08/06 03:57:49;;;;;;;3.53;1.50;;;18.80;80.30;;;;;;4976371;28;20463;-69
2023/08/06 04:00:15;;;;;;;1.92;1.33;;;18.90;80.40;;;;;;4975876;28;20019;-69
2023/08/06 04:02:42;;;;;;;1.45;1.35;;;18.90;80.40;;;;;;4975887;28;20026;-69
2023/08/06 04:05:08;;;;;;;0.90;0.90;;;18.80;80.40;;;;;;4975944;28;20019;-69
2023/08/06 04:07:34;;;;;;;1.15;1.00;;;18.80;80.40;;;;;;4976073;28;20031;-69
2023/08/06 04:10:02;;;;;;;1.20;1.10;;;18.80;80.40;;;;;;4975524;28;20061;-69
2023/08/06 04:12:29;;;;;;;2.72;1.38;;;18.90;80.50;;;;;;4979493;28;20030;-68
2023/08/06 04:14:57;;;;;;;4.25;1.50;;;18.90;80.60;;;;;;4979136;28;20037;-70
2023/08/06 04:17:23;;;;;;;3.67;1.90;;;18.90;80.60;;;;;;4979341;28;20073;-69
2023/08/06 04:19:54;;;;;;;3.28;1.70;;;18.80;80.70;;;;;;4979178;28;20028;-69
2023/08/06 04:22:21;;;;;;;4.53;2.00;;;18.80;80.70;;;;;;4979218;28;20033;-69
2023/08/06 04:24:47;;;;;;;2.58;1.90;;;18.80;80.80;;;;;;4979209;28;20101;-69
2023/08/06 04:27:14;;;;;;;2.10;1.90;;;18.80;80.80;;;;;;4978285;28;20031;-69
2023/08/06 04:29:40;;;;;;;3.88;1.63;;;18.80;81.00;;;;;;4979057;28;20449;-69
2023/08/06 04:32:08;;;;;;;1.88;1.58;;;18.80;80.70;;;;;;4994251;28;20038;-69
2023/08/06 04:34:34;;;;;;;2.72;1.80;;;18.80;80.60;;;;;;4978936;28;20023;-68
2023/08/06 04:37:01;;;;;;;1.50;1.33;;;18.80;80.70;;;;;;4979546;28;20069;-69
2023/08/06 04:39:27;;;;;;;3.03;1.80;;;18.70;80.80;;;;;;4979352;28;20098;-69
2023/08/06 04:41:53;;;;;;;3.00;1.70;;;18.80;80.80;;;;;;4978898;28;20046;-69
2023/08/06 04:44:19;;;;;;;2.45;1.40;;;18.70;80.80;;;;;;4979112;28;20031;-69
2023/08/06 04:46:45;;;;;;;2.03;1.80;;;18.80;80.90;;;;;;4978812;28;20035;-69
2023/08/06 04:49:11;;;;;;;3.42;1.48;;;18.80;80.90;;;;;;4978979;28;20034;-69
2023/08/06 04:51:37;;;;;;;4.40;1.73;;;18.80;80.90;;;;;;4978697;28;20379;-70
2023/08/06 04:54:03;;;;;;;5.22;1.80;;;18.90;80.80;;;;;;4993799;28;20022;-69
2023/08/06 04:56:29;;;;;;;2.20;1.60;;;18.90;80.70;;;;;;4979134;28;20426;-69
2023/08/06 04:58:55;;;;;;;1.50;1.40;;;18.90;80.60;;;;;;4979029;28;20023;-69
2023/08/06 05:01:21;;;;;;;1.70;1.42;;;19.00;80.60;;;;;;4978489;28;20031;-69
2023/08/06 05:03:48;;;;;;;1.55;1.15;;;19.10;80.50;;;;;;4978744;28;20023;-69
2023/08/06 05:06:14;;;;;;;2.25;1.40;;;19.10;80.40;;;;;;4978768;28;20037;-69
2023/08/06 05:08:39;;;;;;;1.50;1.40;;;19.50;80.60;;;;;;4978358;28;20034;-69
2023/08/06 05:11:06;;;;;;;1.90;1.20;;;20.80;80.10;;;;;;4978253;28;20069;-69
2023/08/06 05:13:32;;;;;;;3.83;1.70;;;22.70;78.00;;;;;;4978208;28;20073;-70
2023/08/06 05:15:58;;;;;;;1.85;1.20;;;24.40;73.10;;;;;;4978547;28;20023;-69
2023/08/06 05:18:24;;;;;;;3.28;1.40;;;26.00;69.30;;;;;;4978176;28;20023;-69
2023/08/06 05:20:50;;;;;;;1.17;1.08;;;27.50;65.10;;;;;;4978441;28;20041;-69
2023/08/06 05:23:16;;;;;;;0.90;0.90;;;28.80;61.90;;;;;;4977984;28;20034;-69
2023/08/06 05:25:42;;;;;;;1.20;1.10;;;29.90;59.40;;;;;;4978370;28;20035;-69
2023/08/06 05:28:08;;;;;;;2.63;1.10;;;31.00;56.70;;;;;;4977334;28;20106;-69
2023/08/06 05:30:38;;;;;;;4.65;1.25;;;32.00;54.50;;;;;;4978259;28;20035;-69
2023/08/06 05:33:04;;;;;;;1.63;1.00;;;32.80;51.70;;;;;;4976874;28;20343;-69
2023/08/06 05:35:30;;;;;;;2.25;0.93;;;33.60;50.50;;;;;;4978196;28;20046;-69
2023/08/06 05:37:57;;;;;;;1.30;0.90;;;34.50;48.70;;;;;;4978037;28;20019;-70
2023/08/06 05:40:25;;;;;;;2.92;0.90;;;35.50;47.10;;;;;;4978302;28;20023;-70
2023/08/06 05:42:53;;;;;;;1.67;1.13;;;36.50;45.10;;;;;;4977741;28;20037;-69
2023/08/06 05:45:19;;;;;;;2.25;0.88;;;37.40;43.10;;;;;;4977700;28;20085;-69
2023/08/06 05:47:45;;;;;;;1.85;1.00;;;37.90;42.10;;;;;;4977619;28;20027;-69
2023/08/06 05:50:11;;;;;;;1.65;0.88;;;38.60;40.40;;;;;;4977853;28;20030;-67
2023/08/06 05:52:37;;;;;;;0.60;0.60;;;39.40;38.90;;;;;;4977604;28;20019;-69
2023/08/06 05:55:03;;;;;;;2.03;0.80;;;40.00;37.20;;;;;;4977821;28;20027;-69
2023/08/06 05:57:29;;;;;;;2.92;0.90;;;40.50;35.70;;;;;;4976949;28;20463;-69
2023/08/06 05:59:55;;;;;;;2.10;0.85;;;41.10;35.50;;;;;;4977662;28;20042;-69
2023/08/06 06:02:21;;;;;;;2.05;1.05;;;41.60;35.00;;;;;;4977447;28;20026;-70
2023/08/06 06:04:48;;;;;;;1.35;1.00;;;41.90;34.80;;;;;;4976557;28;20468;-69
2023/08/06 06:07:14;;;;;;;0.60;0.60;;;41.50;35.10;;;;;;4977867;28;20027;-69
2023/08/06 06:09:40;;;;;;;1.02;0.80;;;41.50;35.00;;;;;;4976947;28;20480;-66
2023/08/06 06:12:06;;;;;;;2.40;1.00;;;41.90;34.70;;;;;;4992489;28;20041;-70
2023/08/06 06:14:32;;;;;;;2.50;0.80;;;42.50;34.40;;;;;;4977394;28;20062;-70
2023/08/06 06:17:00;;;;;;;1.00;0.90;;;42.90;33.40;;;;;;4977207;28;20026;-70
2023/08/06 06:19:26;;;;;;;1.30;0.80;;;43.30;32.70;;;;;;4977369;28;20077;-69
2023/08/06 06:21:53;;;;;;;1.58;1.25;;;43.70;31.90;;;;;;4977410;28;20042;-70
2023/08/06 06:24:19;;;;;;;0.93;0.82;;;44.20;31.00;;;;;;4977302;28;20109;-69
2023/08/06 06:26:45;;;;;;;2.38;1.42;;;44.50;30.80;;;;;;4977555;28;20369;-69
2023/08/06 06:29:11;;;;;;;1.00;0.98;;;44.90;29.90;;;;;;4977083;28;20046;-69
2023/08/06 06:31:37;;;;;;;2.45;1.05;;;44.90;30.00;;;;;;4976928;28;20377;-69
2023/08/06 06:34:03;;;;;;;1.70;1.00;;;45.20;30.30;;;;;;4976064;28;20023;-70
2023/08/06 06:36:29;;;;;;;1.13;0.95;;;45.60;30.20;;;;;;4977092;28;20026;-69
2023/08/06 06:38:55;;;;;;;2.22;1.08;;;46.00;29.40;;;;;;4991934;28;20390;-69
2023/08/06 06:41:21;;;;;;;1.10;1.00;;;46.30;29.00;;;;;;4977282;28;20333;-69
2023/08/06 06:43:47;;;;;;;1.25;0.80;;;46.30;28.80;;;;;;4976773;28;20059;-70
2023/08/06 06:46:13;;;;;;;2.75;1.40;;;46.40;28.20;;;;;;4977490;28;20126;-70
2023/08/06 06:48:39;;;;;;;2.15;1.20;;;46.20;27.90;;;;;;4976643;28;20449;-70
2023/08/06 06:51:05;;;;;;;1.35;1.25;;;46.00;28.20;;;;;;4976693;28;20026;-70
2023/08/06 06:53:31;;;;;;;2.22;1.20;;;45.90;27.90;;;;;;4991709;28;20117;-70
2023/08/06 06:56:06;;;;;;;2.88;1.00;;;45.70;27.90;;;;;;4976776;28;20109;-70
2023/08/06 06:58:34;;;;;;;2.50;1.10;;;45.60;28.00;;;;;;4976484;28;20102;-67
2023/08/06 07:01:02;;;;;;;2.95;1.20;;;45.60;28.00;;;;;;4976398;28;20034;-68
2023/08/06 07:03:31;;;;;;;1.00;1.00;;;45.10;27.90;;;;;;4976371;28;20066;-67
2023/08/06 07:05:59;;;;;;;1.20;1.10;;;44.50;28.00;;;;;;4976315;28;20031;-67
2023/08/06 07:08:25;;;;;;;2.50;1.17;;;44.20;28.30;;;;;;4976284;28;20442;-67
2023/08/06 07:11:01;;;;;;;0.95;0.93;;;43.80;28.70;;;;;;4976036;28;20066;-67
2023/08/06 07:13:27;;;;;;;2.13;1.10;;;42.50;29.10;;;;;;4976227;28;20045;-69
2023/08/06 07:15:55;;;;;;;1.48;1.38;;;40.80;31.30;;;;;;4976371;28;20102;-69
2023/08/06 07:18:21;;;;;;;1.30;1.20;;;38.90;33.20;;;;;;4976485;28;20019;-69
2023/08/06 07:20:51;;;;;;;3.28;1.60;;;37.30;35.40;;;;;;4976503;28;20051;-70
2023/08/06 07:23:18;;;;;;;1.70;1.10;;;35.80;36.80;;;;;;4976527;28;20027;-68
2023/08/06 07:25:45;;;;;;;1.70;1.45;;;34.50;38.90;;;;;;4976522;28;20027;-69
2023/08/06 07:28:11;;;;;;;1.98;1.65;;;33.40;40.90;;;;;;4976121;28;20031;-68
2023/08/06 07:30:42;;;;;;;3.80;1.60;;;32.50;42.60;;;;;;4976166;28;20038;-68
2023/08/06 07:33:08;;;;;;;4.30;1.70;;;31.70;44.10;;;;;;4976366;28;20034;-68
2023/08/06 07:35:35;;;;;;;2.08;1.88;;;31.10;45.60;;;;;;4976302;28;20026;-68
2023/08/06 07:38:01;;;;;;;3.10;1.60;;;30.50;46.80;;;;;;4976305;28;20031;-69
2023/08/06 07:40:28;;;;;;;3.25;2.20;;;30.20;47.70;;;;;;4976574;28;20341;-69
2023/08/06 07:42:54;;;;;;;4.95;1.90;;;30.10;48.20;;;;;;4976078;28;20022;-68
2023/08/06 07:45:22;;;;;;;4.45;2.30;;;29.90;48.20;;;;;;4977806;28;20043;-68
2023/08/06 07:47:48;;;;;;;2.22;2.05;;;29.40;49.20;;;;;;4979713;28;20019;-68
2023/08/06 07:50:14;;;;;;;2.33;2.10;;;29.00;50.20;;;;;;4979833;28;20038;-68
2023/08/06 07:52:40;;;;;;;3.00;2.60;;;28.90;49.80;;;;;;4980031;28;20022;-68
2023/08/06 07:55:08;;;;;;;2.40;2.20;;;28.60;50.30;;;;;;4979651;28;20058;-69
2023/08/06 07:57:37;;;;;;;2.20;1.98;;;28.20;51.50;;;;;;4980156;28;20034;-68
2023/08/06 08:00:04;;;;;;;2.13;1.83;;;28.00;52.20;;;;;;4979495;28;20033;-69
2023/08/06 08:02:30;;;;;;;4.07;1.90;;;28.00;52.10;;;;;;4979536;28;20449;-68
2023/08/06 08:04:56;;;;;;;3.80;2.17;;;27.90;52.70;;;;;;4979529;28;20030;-69
2023/08/06 08:07:22;;;;;;;2.35;2.03;;;27.90;52.70;;;;;;4979761;28;20037;-68
2023/08/06 08:09:48;;;;;;;2.85;2.00;;;27.90;52.90;;;;;;4979112;28;20465;-68
2023/08/06 08:12:14;;;;;;;3.60;2.03;;;27.70;53.40;;;;;;4979939;28;20030;-69
2023/08/06 08:14:41;;;;;;;2.55;2.20;;;27.70;53.60;;;;;;4979762;28;20031;-68
2023/08/06 08:17:07;;;;;;;3.17;2.22;;;27.60;53.80;;;;;;4979604;28;20086;-69
2023/08/06 08:19:33;;;;;;;3.53;2.58;;;27.40;53.40;;;;;;4979242;28;20023;-69
2023/08/06 08:22:01;;;;;;;3.00;1.90;;;27.00;53.70;;;;;;4979273;28;20023;-69
2023/08/06 08:24:30;;;;;;;3.20;2.50;;;27.00;54.40;;;;;;4979148;28;20110;-69
2023/08/06 08:27:01;;;;;;;5.45;2.53;;;27.10;54.90;;;;;;4979023;28;20100;-68
2023/08/06 08:29:28;;;;;;;2.10;1.80;;;27.20;54.90;;;;;;4979052;28;20076;-68
2023/08/06 08:31:55;;;;;;;4.63;3.22;;;27.30;55.00;;;;;;4979480;28;20031;-68
2023/08/06 08:34:25;;;;;;;4.43;3.00;;;27.50;54.60;;;;;;4978955;28;20031;-67
2023/08/06 08:36:51;;;;;;;3.70;2.50;;;27.40;54.80;;;;;;4978920;28;20405;-68
2023/08/06 08:39:19;;;;;;;6.65;2.97;;;27.30;55.00;;;;;;4978854;28;20030;-68
2023/08/06 08:41:46;;;;;;;4.32;2.60;;;27.40;55.30;;;;;;4979363;28;20027;-67
2023/08/06 08:44:15;;;;;;;3.05;2.45;;;27.40;55.30;;;;;;4979089;28;20023;-68
2023/08/06 08:46:42;;;;;;;4.82;3.00;;;27.50;55.20;;;;;;4978809;28;20518;-68
2023/08/06 08:49:11;;;;;;;4.05;2.70;;;27.60;54.40;;;;;;4978687;28;20350;-67
2023/08/06 08:51:38;;;;;;;3.80;2.78;;;27.50;53.50;;;;;;4979249;28;20442;-68
2023/08/06 08:54:08;;;;;;;4.30;2.42;;;27.10;54.10;;;;;;4978615;28;20113;-68
2023/08/06 08:56:35;;;;;;;3.38;2.38;;;26.90;54.50;;;;;;4977849;28;20023;-68
2023/08/06 08:59:01;;;;;;;3.25;2.38;;;26.90;54.90;;;;;;4978495;28;20023;-68
2023/08/06 09:01:30;;;;;;;4.22;2.03;;;27.10;54.80;;;;;;4978489;28;20330;-68
2023/08/06 09:03:57;;;;;;;1.60;1.50;;;27.30;54.90;;;;;;4978281;28;20091;-68
2023/08/06 09:06:29;;;;;;;3.78;2.70;;;27.50;54.70;;;;;;4978459;28;20037;-68
2023/08/06 09:09:06;;;;;;;3.20;2.00;;;27.70;54.60;;;;;;4978304;28;20050;-69
2023/08/06 09:11:41;;;;;;;4.50;2.08;;;27.90;53.80;;;;;;4978127;28;20054;-68
2023/08/06 09:14:08;;;;;;;2.30;2.10;;;27.80;53.40;;;;;;4977605;28;20026;-68
2023/08/06 09:16:37;;;;;;;2.75;2.22;;;27.50;53.70;;;;;;4978110;28;20118;-68
2023/08/06 09:19:12;;;;;;;2.33;1.58;;;27.40;53.60;;;;;;4978091;28;20046;-68
2023/08/06 09:21:41;;;;;;;3.80;1.73;;;27.30;53.60;;;;;;4978079;28;20434;-68
2023/08/06 09:24:12;;;;;;;2.25;1.63;;;27.20;54.00;;;;;;4978066;28;20034;-68
2023/08/06 09:26:41;;;;;;;2.03;1.50;;;27.20;53.90;;;;;;4978605;28;20066;-68
2023/08/06 09:29:11;;;;;;;2.13;1.60;;;27.20;54.00;;;;;;4978177;28;20018;-68
2023/08/06 09:31:44;;;;;;;1.30;1.20;;;27.20;54.30;;;;;;4978263;28;20039;-68
2023/08/06 09:34:17;;;;;;;2.30;1.30;;;27.40;54.40;;;;;;4978411;28;20158;-68
2023/08/06 09:36:47;;;;;;;2.28;1.45;;;27.50;54.00;;;;;;4978225;28;20022;-68
2023/08/06 09:39:41;;;;;;;3.67;2.20;;;27.70;53.90;;;;;;4977830;28;20018;-68
2023/08/06 09:42:08;;;;;;;2.53;1.58;;;27.80;53.90;;;;;;4919077;29;20071;-68
2023/08/06 09:44:38;;;;;;;2.78;1.38;;;27.90;53.70;;;;;;4919041;29;20160;-69
2023/08/06 09:51:59;;;;;;;1.55;1.17;;;27.80;53.30;;;;;;4978315;28;20081;-68
2023/08/06 09:54:29;;;;;;;2.25;1.00;;;27.70;53.70;;;;;;4977447;28;20042;-68
2023/08/06 09:56:56;;;;;;;1.25;1.15;;;27.80;54.00;;;;;;4992735;28;20357;-68
2023/08/06 09:59:25;;;;;;;1.38;1.20;;;27.90;53.70;;;;;;4978053;28;20526;-68
2023/08/06 10:01:57;;;;;;;2.35;1.48;;;27.90;53.50;;;;;;4977734;28;20030;-68
2023/08/06 10:04:23;;;;;;;1.70;1.30;;;28.00;52.50;;;;;;4977683;28;20023;-68
2023/08/06 10:06:50;;;;;;;1.92;1.27;;;28.00;52.40;;;;;;4977917;28;20077;-68
2023/08/06 10:09:18;;;;;;;1.83;1.27;;;28.00;52.30;;;;;;4977704;28;20106;-68
2023/08/06 10:16:57;;;;;;;2.38;1.40;;;28.40;51.30;;;;;;4977641;28;20045;-69
2023/08/06 10:19:25;;;;;;;1.90;1.30;;;28.50;51.10;;;;;;4977042;28;20098;-68
2023/08/06 10:22:14;;;;;;;3.38;1.67;;;28.50;51.50;;;;;;4977046;28;20484;-68
2023/08/06 10:24:58;;;;;;;2.13;1.60;;;28.70;51.40;;;;;;4977274;28;20026;-69
2023/08/06 10:28:13;;;;;;;2.10;1.25;;;28.80;51.20;;;;;;4976802;28;20086;-68
2023/08/06 10:30:44;;;;;;;2.42;1.05;;;28.90;50.60;;;;;;4976802;28;20026;-69
2023/08/06 10:33:11;;;;;;;1.92;1.35;;;29.00;50.60;;;;;;4976723;28;20047;-68
2023/08/06 10:35:43;;;;;;;2.40;1.50;;;29.00;50.70;;;;;;4976785;28;20525;-68
2023/08/06 10:38:14;;;;;;;2.70;1.65;;;29.10;50.70;;;;;;4976747;28;20034;-68
2023/08/06 10:41:01;;;;;;;1.92;1.73;;;29.10;49.90;;;;;;4976748;28;20082;-68
2023/08/06 10:43:33;;;;;;;1.10;1.00;;;28.80;49.40;;;;;;4976973;28;20027;-68
2023/08/06 10:46:04;;;;;;;1.52;1.42;;;28.70;50.50;;;;;;4976546;28;20026;-68
2023/08/06 10:48:41;;;;;;;2.13;1.40;;;28.80;50.40;;;;;;4976530;28;20461;-68
2023/08/06 10:51:09;;;;;;;1.48;1.38;;;28.80;50.70;;;;;;4976584;28;20046;-68
2023/08/06 10:54:00;;;;;;;1.55;1.30;;;28.90;50.70;;;;;;4976755;28;20030;-68
2023/08/06 10:56:27;;;;;;;2.35;1.45;;;29.10;50.50;;;;;;4977055;28;20027;-69
2023/08/06 10:58:57;;;;;;;2.22;1.52;;;29.10;50.00;;;;;;4976367;28;20046;-68
2023/08/06 11:01:24;;;;;;;2.55;1.98;;;29.20;50.00;;;;;;4976981;28;20023;-68
2023/08/06 11:03:52;;;;;;;2.22;1.90;;;29.00;50.00;;;;;;4976754;28;20023;-69
2023/08/06 11:06:22;;;;;;;1.70;1.60;;;29.00;50.20;;;;;;4976376;28;20393;-68
2023/08/06 11:08:53;;;;;;;1.35;1.25;;;28.80;50.10;;;;;;4976315;28;20035;-69
2023/08/06 11:11:20;;;;;;;3.10;1.77;;;28.50;50.60;;;;;;4976365;28;20078;-68
2023/08/06 11:13:51;;;;;;;1.95;1.60;;;28.60;51.00;;;;;;4976161;28;20424;-69
2023/08/06 11:16:32;;;;;;;1.90;1.80;;;28.70;50.90;;;;;;4976825;28;20098;-69
2023/08/06 11:19:00;;;;;;;4.05;1.70;;;28.80;50.50;;;;;;4976869;28;20508;-69
2023/08/06 11:21:26;;;;;;;2.72;1.88;;;28.70;50.60;;;;;;4982299;28;20054;-68
2023/08/06 11:23:56;;;;;;;1.85;1.75;;;28.70;50.30;;;;;;4982832;28;20050;-68
2023/08/06 11:26:24;;;;;;;1.75;1.50;;;28.70;50.50;;;;;;4982725;28;20034;-68
2023/08/06 11:28:50;;;;;;;2.55;2.03;;;28.70;50.60;;;;;;4982883;28;20029;-68
2023/08/06 11:31:23;;;;;;;2.72;1.67;;;28.70;51.00;;;;;;4983164;28;20022;-67
2023/08/06 11:34:13;;;;;;;2.42;1.70;;;28.80;50.90;;;;;;4983063;28;20385;-68
2023/08/06 11:36:41;;;;;;;4.53;1.88;;;28.90;50.70;;;;;;4983147;28;20445;-68
2023/08/06 11:39:07;;;;;;;2.00;1.80;;;29.00;51.10;;;;;;4982784;28;20126;-68
2023/08/06 11:41:39;;;;;;;2.10;1.52;;;29.20;50.90;;;;;;4983098;28;20026;-68
2023/08/06 11:44:06;;;;;;;3.13;2.03;;;29.40;50.30;;;;;;4983354;28;20051;-69
2023/08/06 11:49:51;;;;;;;1.88;1.45;;;29.60;49.30;;;;;;4982660;28;20058;-69
2023/08/06 11:52:23;;;;;;;1.75;1.65;;;29.70;48.70;;;;;;4982972;28;20046;-68
2023/08/06 11:55:07;;;;;;;1.95;1.73;;;29.70;48.40;;;;;;4982261;28;20038;-68
2023/08/06 11:57:36;;;;;;;1.50;1.40;;;29.80;48.80;;;;;;4982980;28;20097;-69
2023/08/06 12:00:13;;;;;;;3.28;1.80;;;29.90;48.60;;;;;;4982292;28;20027;-68
2023/08/06 12:02:43;;;;;;;1.83;1.60;;;29.90;48.20;;;;;;4982918;28;20014;-69
2023/08/06 12:05:23;;;;;;;2.17;1.70;;;29.80;48.20;;;;;;4982356;28;20027;-68
2023/08/06 12:07:55;;;;;;;1.50;1.40;;;29.80;48.30;;;;;;4966704;28;20077;-68
2023/08/06 12:10:24;;;;;;;1.63;1.53;;;29.70;48.10;;;;;;4982299;28;20126;-69
2023/08/06 12:12:50;;;;;;;1.65;1.50;;;29.50;48.30;;;;;;4982589;28;20026;-68
2023/08/06 12:15:16;;;;;;;1.50;1.40;;;29.40;48.80;;;;;;4982165;28;20409;-69
2023/08/06 12:17:45;;;;;;;1.67;1.33;;;29.30;48.90;;;;;;4982485;28;20023;-69
2023/08/06 12:20:12;;;;;;;1.80;1.70;;;29.30;49.10;;;;;;4982168;28;20109;-68
2023/08/06 12:22:40;;;;;;;1.48;1.38;;;29.40;48.80;;;;;;4982198;28;20018;-68
2023/08/06 12:25:13;;;;;;;1.40;1.30;;;29.40;48.90;;;;;;4982115;28;20030;-69
2023/08/06 12:27:42;;;;;;;1.33;1.23;;;29.40;48.90;;;;;;4982831;28;20167;-68
2023/08/06 12:30:09;;;;;;;2.05;1.40;;;29.50;48.90;;;;;;4982083;28;20441;-68
2023/08/06 12:32:38;;;;;;;1.40;1.30;;;29.50;48.30;;;;;;4978269;28;20035;-69
2023/08/06 12:35:08;;;;;;;1.20;1.10;;;29.50;48.40;;;;;;4978989;28;20031;-69
2023/08/06 12:37:38;;;;;;;1.50;1.40;;;29.50;48.60;;;;;;4979222;28;20023;-68
2023/08/06 12:40:05;;;;;;;2.40;1.45;;;29.40;48.70;;;;;;4978766;28;20369;-68
2023/08/06 12:42:33;;;;;;;1.30;1.20;;;29.40;49.10;;;;;;4978922;28;20027;-69
2023/08/06 12:44:59;;;;;;;3.00;1.20;;;29.40;49.30;;;;;;4978807;28;20458;-68
2023/08/06 12:47:30;;;;;;;2.38;1.42;;;29.40;49.60;;;;;;4978833;28;20071;-68
2023/08/06 12:49:58;;;;;;;1.35;1.17;;;29.40;49.60;;;;;;4978757;28;20062;-68
2023/08/06 12:52:26;;;;;;;1.55;1.38;;;29.40;49.50;;;;;;4978711;28;20030;-69
2023/08/06 12:54:54;;;;;;;2.28;1.45;;;29.40;49.80;;;;;;4979061;28;20038;-69
2023/08/06 12:57:22;;;;;;;1.10;1.10;;;29.60;50.00;;;;;;4978689;28;20053;-68
2023/08/06 12:59:50;;;;;;;1.60;1.30;;;29.70;49.80;;;;;;4978423;28;20061;-68
2023/08/06 13:02:16;;;;;;;2.17;1.70;;;29.80;49.20;;;;;;4979095;28;20023;-69
2023/08/06 13:04:42;;;;;;;1.63;1.52;;;29.90;49.30;;;;;;4978973;28;20027;-69
2023/08/06 13:07:10;;;;;;;1.73;1.52;;;29.90;49.40;;;;;;4978454;28;20030;-69
2023/08/06 13:09:36;;;;;;;1.63;1.40;;;29.90;49.30;;;;;;4978054;28;20049;-68
2023/08/06 13:14:30;;;;;;;2.05;1.88;;;30.00;49.40;;;;;;4979017;28;20045;-68